createdAt,value
2023-04-24T00:01:10.148Z,15.10
2023-04-24T00:03:38.370Z,18.50
2023-04-24T00:06:09.271Z,14.30
2023-04-24T00:08:37.474Z,14.10
2023-04-24T00:11:05.859Z,15.80
2023-04-24T00:13:33.844Z,17.70
2023-04-24T00:16:02.479Z,15.50
2023-04-24T00:18:30.387Z,16.70
2023-04-24T00:20:58.365Z,13.60
2023-04-24T00:23:26.279Z,12.90
2023-04-24T00:25:54.221Z,18.20
2023-04-24T00:28:22.149Z,18.80
2023-04-24T00:30:50.153Z,16.90
2023-04-24T00:33:18.227Z,15.10
2023-04-24T00:35:46.271Z,15.20
2023-04-24T00:38:14.425Z,14.40
2023-04-24T00:40:44.042Z,9.70
2023-04-24T00:43:13.014Z,8.80
2023-04-24T00:45:41.042Z,10.30
2023-04-24T00:48:09.298Z,11.10
2023-04-24T00:50:37.891Z,9.20
2023-04-24T00:53:05.990Z,10.80
2023-04-24T00:55:34.175Z,10.30
2023-04-24T00:58:02.071Z,9.50
2023-04-24T01:00:30.145Z,12.70
2023-04-24T01:03:00.557Z,9.10
2023-04-24T01:05:28.991Z,11.40
2023-04-24T01:07:57.874Z,9.40
2023-04-24T01:10:28.489Z,11.80
2023-04-24T01:12:56.870Z,10.80
2023-04-24T01:15:25.004Z,14.70
2023-04-24T01:17:53.040Z,9.70
2023-04-24T01:20:23.752Z,14.60
2023-04-24T01:22:51.706Z,11.00
2023-04-24T01:25:20.052Z,13.50
2023-04-24T01:27:48.077Z,12.40
2023-04-24T01:30:16.126Z,10.90
2023-04-24T01:32:47.019Z,12.20
2023-04-24T01:35:15.631Z,12.30
2023-04-24T01:37:43.786Z,7.70
2023-04-24T01:40:12.004Z,10.10
2023-04-24T01:42:42.361Z,10.90
2023-04-24T01:45:14.055Z,10.90
2023-04-24T01:47:42.910Z,10.30
2023-04-24T01:50:11.341Z,11.10
2023-04-24T01:52:40.800Z,16.90
2023-04-24T01:55:09.332Z,10.80
2023-04-24T01:57:37.615Z,11.80
2023-04-24T02:00:08.124Z,11.30
2023-04-24T02:02:44.291Z,10.10
2023-04-24T02:05:14.229Z,12.90
2023-04-24T02:07:42.268Z,10.00
2023-04-24T02:10:11.537Z,14.70
2023-04-24T02:12:43.799Z,11.70
2023-04-24T02:15:13.479Z,12.80
2023-04-24T02:17:41.701Z,13.10
2023-04-24T02:20:10.034Z,14.60
2023-04-24T02:22:40.486Z,15.10
2023-04-24T02:25:09.135Z,14.30
2023-04-24T02:27:37.156Z,12.20
2023-04-24T02:30:08.796Z,16.40
2023-04-24T02:32:37.055Z,13.70
2023-04-24T02:35:05.422Z,11.90
2023-04-24T02:37:34.087Z,13.80
2023-04-24T02:40:02.127Z,18.20
2023-04-24T02:42:30.197Z,14.40
2023-04-24T02:44:59.762Z,14.10
2023-04-24T02:47:27.965Z,15.60
2023-04-24T02:49:56.612Z,17.10
2023-04-24T02:52:24.977Z,14.70
2023-04-24T02:54:52.964Z,12.80
2023-04-24T02:57:21.129Z,13.40
2023-04-24T02:59:49.158Z,12.80
2023-04-24T03:02:17.324Z,13.90
2023-04-24T03:04:45.827Z,20.30
2023-04-24T03:07:14.072Z,14.60
2023-04-24T03:09:42.302Z,13.30
2023-04-24T03:12:10.543Z,13.10
2023-04-24T03:14:38.578Z,17.80
2023-04-24T03:17:06.632Z,16.40
2023-04-24T03:19:34.758Z,17.20
2023-04-24T03:22:07.076Z,15.10
2023-04-24T03:24:36.001Z,17.50
2023-04-24T03:27:04.407Z,16.10
2023-04-24T03:29:56.768Z,19.00
2023-04-24T03:32:33.595Z,16.30
2023-04-24T03:35:02.192Z,14.00
2023-04-24T03:37:30.623Z,17.80
2023-04-24T03:40:09.699Z,14.10
2023-04-24T03:42:39.353Z,17.30
2023-04-24T03:45:08.923Z,16.90
2023-04-24T03:47:38.389Z,19.10
2023-04-24T03:50:07.796Z,19.10
2023-04-24T03:52:36.334Z,17.80
2023-04-24T03:55:06.068Z,17.20
2023-04-24T03:57:36.217Z,27.70
2023-04-24T04:00:15.499Z,19.50
2023-04-24T04:02:44.930Z,20.10
2023-04-24T04:05:12.998Z,20.00
2023-04-24T04:07:41.093Z,17.80
2023-04-24T04:10:09.868Z,21.80
2023-04-24T04:12:39.157Z,21.40
2023-04-24T04:15:08.434Z,17.40
2023-04-24T04:17:39.303Z,19.00
2023-04-24T04:20:11.232Z,14.90
2023-04-24T04:22:42.762Z,20.20
2023-04-24T04:25:14.712Z,20.60
2023-04-24T04:27:43.412Z,17.60
2023-04-24T04:30:13.714Z,18.90
2023-04-24T04:32:57.835Z,17.00
2023-04-24T04:35:26.189Z,20.10
2023-04-24T04:37:54.664Z,17.90
2023-04-24T04:40:32.851Z,19.50
2023-04-24T04:43:04.598Z,15.20
2023-04-24T04:45:38.437Z,17.80
2023-04-24T04:48:20.592Z,15.60
2023-04-24T04:50:49.718Z,21.10
2023-04-24T04:53:18.582Z,17.80
2023-04-24T04:55:48.383Z,16.70
2023-04-24T04:58:18.124Z,21.00
2023-04-24T05:00:47.463Z,20.20
2023-04-24T05:03:24.813Z,20.40
2023-04-24T05:05:58.869Z,16.20
2023-04-24T05:08:28.066Z,18.60
2023-04-24T05:10:57.046Z,19.00
2023-04-24T05:13:38.333Z,20.30
2023-04-24T05:16:11.210Z,24.40
2023-04-24T05:18:39.976Z,16.60
2023-04-24T05:21:09.322Z,21.10
2023-04-24T05:23:38.252Z,18.70
2023-04-24T05:26:07.730Z,24.80
2023-04-24T05:28:38.151Z,18.90
2023-04-24T05:31:10.695Z,21.70
2023-04-24T05:33:39.387Z,17.00
2023-04-24T05:36:08.402Z,16.20
2023-04-24T05:38:36.768Z,14.40
2023-04-24T05:41:04.873Z,16.60
2023-04-24T05:43:33.246Z,18.20
2023-04-24T05:46:01.656Z,15.10
2023-04-24T05:48:29.750Z,20.20
2023-04-24T05:50:57.739Z,15.80
2023-04-24T05:53:26.086Z,17.20
2023-04-24T05:55:55.239Z,26.30
2023-04-24T05:58:23.796Z,25.70
2023-04-24T06:00:53.123Z,22.90
2023-04-24T06:03:21.901Z,19.70
2023-04-24T06:05:52.480Z,24.80
2023-04-24T06:08:21.083Z,21.20
2023-04-24T06:10:49.588Z,15.00
2023-04-24T06:13:19.027Z,12.20
2023-04-24T06:16:02.804Z,18.20
2023-04-24T06:18:36.713Z,17.60
2023-04-24T06:21:05.407Z,12.00
2023-04-24T06:23:34.127Z,15.20
2023-04-24T06:26:02.568Z,16.10
2023-04-24T06:28:30.951Z,14.50
2023-04-24T06:31:00.103Z,11.20
2023-04-24T06:33:28.408Z,11.70
2023-04-24T06:35:56.895Z,18.10
2023-04-24T06:38:25.363Z,19.20
2023-04-24T06:40:53.613Z,13.80
2023-04-24T06:43:22.166Z,10.10
2023-04-24T06:45:51.172Z,14.10
2023-04-24T06:48:19.380Z,24.90
2023-04-24T06:50:48.148Z,12.90
2023-04-24T06:53:16.787Z,9.10
2023-04-24T06:55:47.213Z,12.20
2023-04-24T06:58:16.353Z,11.10
2023-04-24T07:00:44.585Z,11.40
2023-04-24T07:03:12.934Z,11.40
2023-04-24T07:05:41.392Z,8.50
2023-04-24T07:08:12.601Z,11.50
2023-04-24T07:10:40.734Z,9.30
2023-04-24T07:13:09.563Z,12.70
2023-04-24T07:15:37.867Z,11.60
2023-04-24T07:18:06.553Z,9.00
2023-04-24T07:20:35.417Z,10.30
2023-04-24T07:23:04.060Z,8.90
2023-04-24T07:25:33.113Z,12.40
2023-04-24T07:28:01.663Z,12.50
2023-04-24T07:30:30.325Z,8.00
2023-04-24T07:32:58.622Z,7.90
2023-04-24T07:35:28.108Z,10.60
2023-04-24T07:37:56.477Z,8.60
2023-04-24T07:40:25.049Z,15.50
2023-04-24T07:42:53.416Z,10.80
2023-04-24T07:45:21.800Z,12.10
2023-04-24T07:47:51.951Z,10.00
2023-04-24T07:50:20.280Z,10.20
2023-04-24T07:52:48.939Z,13.50
2023-04-24T07:55:17.425Z,9.90
2023-04-24T07:57:45.767Z,13.30
2023-04-24T08:00:14.720Z,10.70
2023-04-24T08:02:43.258Z,10.50
2023-04-24T08:05:11.968Z,12.60
2023-04-24T08:07:40.790Z,14.40
2023-04-24T08:10:11.202Z,9.10
2023-04-24T08:12:39.461Z,12.80
2023-04-24T08:15:09.135Z,24.20
2023-04-24T08:17:37.973Z,12.30
2023-04-24T08:20:11.344Z,10.20
2023-04-24T08:22:41.596Z,13.30
2023-04-24T08:25:12.078Z,10.70
2023-04-24T08:27:40.747Z,16.80
2023-04-24T08:30:09.484Z,9.20
2023-04-24T08:32:39.570Z,10.80
2023-04-24T08:35:11.776Z,11.00
2023-04-24T08:37:42.151Z,7.90
2023-04-24T08:40:16.095Z,10.20
2023-04-24T08:42:45.535Z,9.60
2023-04-24T08:45:14.281Z,11.10
2023-04-24T08:47:43.789Z,9.60
2023-04-24T08:50:13.730Z,8.40
2023-04-24T08:52:43.969Z,12.30
2023-04-24T08:55:13.137Z,7.70
2023-04-24T08:57:42.051Z,8.80
2023-04-24T09:00:12.184Z,7.50
2023-04-24T09:02:44.871Z,7.40
2023-04-24T09:05:14.643Z,9.50
2023-04-24T09:07:47.513Z,8.80
2023-04-24T09:10:17.625Z,11.60
2023-04-24T09:12:46.456Z,17.50
2023-04-24T09:15:15.569Z,7.70
2023-04-24T09:17:45.224Z,10.20
2023-04-24T09:20:13.875Z,13.10
2023-04-24T09:22:44.112Z,12.60
2023-04-24T09:25:13.799Z,11.90
2023-04-24T09:27:46.039Z,14.00
2023-04-24T09:30:15.417Z,12.30
2023-04-24T09:32:44.308Z,9.50
2023-04-24T09:35:15.532Z,7.00
2023-04-24T09:37:48.418Z,12.90
2023-04-24T09:40:20.076Z,10.60
2023-04-24T09:43:02.110Z,5.60
2023-04-24T09:45:37.834Z,10.60
2023-04-24T09:48:07.557Z,14.60
2023-04-24T09:50:36.072Z,13.60
2023-04-24T09:53:06.991Z,17.80
2023-04-24T09:55:41.210Z,13.60
2023-04-24T09:58:10.722Z,19.10
2023-04-24T10:00:39.426Z,16.50
2023-04-24T10:03:09.587Z,17.30
2023-04-24T10:05:40.055Z,13.80
2023-04-24T10:08:12.743Z,9.40
2023-04-24T10:10:43.494Z,8.30
2023-04-24T10:13:18.588Z,12.20
2023-04-24T10:15:49.813Z,11.30
2023-04-24T10:18:20.186Z,14.00
2023-04-24T10:20:50.254Z,11.60
2023-04-24T10:23:20.627Z,10.30
2023-04-24T10:25:51.262Z,10.30
2023-04-24T10:28:20.634Z,14.40
2023-04-24T10:30:51.018Z,9.90
2023-04-24T10:33:19.761Z,7.00
2023-04-24T10:35:52.490Z,13.70
2023-04-24T10:38:26.189Z,13.10
2023-04-24T10:41:20.738Z,7.80
2023-04-24T10:43:52.337Z,11.10
2023-04-24T10:46:22.781Z,10.00
2023-04-24T10:48:56.482Z,10.30
2023-04-24T10:51:27.309Z,17.20
2023-04-24T10:53:59.035Z,15.30
2023-04-24T10:56:27.822Z,12.10
2023-04-24T10:58:56.374Z,9.00
2023-04-24T11:01:31.428Z,8.50
2023-04-24T11:04:04.123Z,10.40
2023-04-24T11:06:36.223Z,8.80
2023-04-24T11:09:14.934Z,8.90
2023-04-24T11:11:47.899Z,16.80
2023-04-24T11:14:17.542Z,17.40
2023-04-24T11:16:53.532Z,11.20
2023-04-24T11:19:27.681Z,12.90
2023-04-24T11:22:05.093Z,8.00
2023-04-24T11:24:48.728Z,8.50
2023-04-24T11:27:21.969Z,10.60
2023-04-24T11:30:03.236Z,7.10
2023-04-24T11:32:35.208Z,18.70
2023-04-24T11:35:08.758Z,6.90
2023-04-24T11:37:39.672Z,9.50
2023-04-24T11:40:21.413Z,10.20
2023-04-24T11:42:51.767Z,10.60
2023-04-24T11:45:25.290Z,9.80
2023-04-24T11:47:54.164Z,11.10
2023-04-24T11:50:26.919Z,9.10
2023-04-24T11:52:56.806Z,16.60
2023-04-24T11:55:28.008Z,8.50
2023-04-24T11:57:59.408Z,9.70
2023-04-24T12:00:34.811Z,10.60
2023-04-24T12:03:13.907Z,9.30
2023-04-24T12:05:42.685Z,8.80
2023-04-24T12:08:11.276Z,12.80
2023-04-24T12:10:39.532Z,8.50
2023-04-24T12:13:11.349Z,8.90
2023-04-24T12:15:41.774Z,10.40
2023-04-24T12:18:14.459Z,7.40
2023-04-24T12:20:43.065Z,7.60
2023-04-24T12:23:11.657Z,8.00
2023-04-24T12:25:40.593Z,11.50
2023-04-24T12:28:13.892Z,10.40
2023-04-24T12:30:46.110Z,11.50
2023-04-24T12:33:20.280Z,12.00
2023-04-24T12:35:52.535Z,13.50
2023-04-24T12:38:25.516Z,7.80
2023-04-24T12:41:06.073Z,12.80
2023-04-24T12:43:37.888Z,12.00
2023-04-24T12:46:06.552Z,12.50
2023-04-24T12:48:35.308Z,10.80
2023-04-24T12:51:03.664Z,8.60
2023-04-24T12:53:32.446Z,12.80
2023-04-24T12:56:00.897Z,12.10
2023-04-24T12:58:30.563Z,14.20
2023-04-24T13:00:59.903Z,9.70
2023-04-24T13:03:29.037Z,7.60
2023-04-24T13:05:57.679Z,10.50
2023-04-24T13:08:25.972Z,11.50
2023-04-24T13:10:55.180Z,12.30
2023-04-24T13:13:24.438Z,9.70
2023-04-24T13:15:53.451Z,10.20
2023-04-24T13:18:22.639Z,10.10
2023-04-24T13:20:52.340Z,11.90
2023-04-24T13:23:21.295Z,11.90
2023-04-24T13:25:49.830Z,9.10
2023-04-24T13:28:18.331Z,12.10
2023-04-24T13:30:47.444Z,11.80
2023-04-24T13:33:15.916Z,15.30
2023-04-24T13:35:44.242Z,9.90
2023-04-24T13:38:13.286Z,13.30
2023-04-24T13:40:42.029Z,13.00
2023-04-24T13:43:10.485Z,10.60
2023-04-24T13:45:39.109Z,12.80
2023-04-24T13:48:07.264Z,10.90
2023-04-24T13:50:35.555Z,9.50
2023-04-24T13:53:04.699Z,10.60
2023-04-24T13:55:32.973Z,11.60
2023-04-24T13:58:02.698Z,9.30
2023-04-24T14:00:32.409Z,8.60
2023-04-24T14:03:01.177Z,14.10
2023-04-24T14:05:29.650Z,11.00
2023-04-24T14:07:58.137Z,13.60
2023-04-24T14:10:27.058Z,11.30
2023-04-24T14:12:55.354Z,9.90
2023-04-24T14:15:23.991Z,14.80
2023-04-24T14:17:52.664Z,10.10
2023-04-24T14:20:22.134Z,12.40
2023-04-24T14:22:50.824Z,11.90
2023-04-24T14:25:19.694Z,10.70
2023-04-24T14:27:49.053Z,10.20
2023-04-24T14:30:18.009Z,11.60
2023-04-24T14:32:46.689Z,14.70
2023-04-24T14:35:15.828Z,13.40
2023-04-24T14:37:44.469Z,14.40
2023-04-24T14:40:29.845Z,13.40
2023-04-24T14:43:01.515Z,15.30
2023-04-24T14:45:30.432Z,14.30
2023-04-24T14:48:00.658Z,15.30
2023-04-24T14:50:31.670Z,12.90
2023-04-24T14:53:00.861Z,15.20
2023-04-24T14:55:30.060Z,12.30
2023-04-24T14:57:58.685Z,11.80
2023-04-24T15:00:27.140Z,10.30
2023-04-24T15:02:56.621Z,12.30
2023-04-24T15:05:26.616Z,12.70
2023-04-24T15:07:55.292Z,13.20
2023-04-24T15:10:25.044Z,13.80
2023-04-24T15:12:53.483Z,10.80
2023-04-24T15:15:21.832Z,13.70
2023-04-24T15:17:50.114Z,14.10
2023-04-24T15:20:19.359Z,15.20
2023-04-24T15:22:47.834Z,13.50
2023-04-24T15:25:16.141Z,16.80
2023-04-24T15:27:46.100Z,12.80
2023-04-24T15:30:15.614Z,14.10
2023-04-24T15:32:44.155Z,13.50
2023-04-24T15:35:12.282Z,12.30
2023-04-24T15:37:40.347Z,12.80
2023-04-24T15:40:09.599Z,9.60
2023-04-24T15:42:37.919Z,18.30
2023-04-24T15:45:06.864Z,13.20
2023-04-24T15:47:35.195Z,14.40
2023-04-24T15:50:05.625Z,16.80
2023-04-24T15:52:33.975Z,12.00
2023-04-24T15:55:06.122Z,14.30
2023-04-24T15:57:34.367Z,13.90
2023-04-24T16:00:04.594Z,18.20
2023-04-24T16:02:40.509Z,12.40
2023-04-24T16:05:09.861Z,14.10
2023-04-24T16:07:39.103Z,11.50
2023-04-24T16:10:07.756Z,13.60
2023-04-24T16:12:35.976Z,10.90
2023-04-24T16:15:04.572Z,11.80
2023-04-24T16:17:33.049Z,12.40
2023-04-24T16:20:01.684Z,15.20
2023-04-24T16:22:30.121Z,13.20
2023-04-24T16:24:58.811Z,14.50
2023-04-24T16:27:26.962Z,14.30
2023-04-24T16:29:56.587Z,9.90
2023-04-24T16:32:25.664Z,11.30
2023-04-24T16:34:53.977Z,14.60
2023-04-24T16:37:22.343Z,13.10
2023-04-24T16:39:50.605Z,15.30
2023-04-24T16:42:18.447Z,17.30
2023-04-24T16:44:47.293Z,10.90
2023-04-24T16:47:15.449Z,17.50
2023-04-24T16:49:43.673Z,14.60
2023-04-24T16:52:12.564Z,17.80
2023-04-24T16:54:41.001Z,21.90
2023-04-24T16:57:09.842Z,17.00
2023-04-24T16:59:38.742Z,13.70
2023-04-24T17:02:06.991Z,14.10
2023-04-24T17:04:38.385Z,13.30
2023-04-24T17:07:08.706Z,13.50
2023-04-24T17:09:38.166Z,17.20
2023-04-24T17:12:06.918Z,18.30
2023-04-24T17:14:35.161Z,16.90
2023-04-24T17:17:04.218Z,16.20
2023-04-24T17:19:32.163Z,12.60
2023-04-24T17:22:00.379Z,14.60
2023-04-24T17:24:34.386Z,19.40
2023-04-24T17:27:13.828Z,14.60
2023-04-24T17:29:43.383Z,14.00
2023-04-24T17:32:11.704Z,13.60
2023-04-24T17:34:40.014Z,13.70
2023-04-24T17:37:08.128Z,14.40
2023-04-24T17:39:36.517Z,18.80
2023-04-24T17:42:04.603Z,14.00
2023-04-24T17:44:32.814Z,21.10
2023-04-24T17:47:01.044Z,22.30
2023-04-24T17:49:29.021Z,21.20
2023-04-24T17:51:57.020Z,23.70
2023-04-24T17:54:25.184Z,25.20
2023-04-24T17:56:53.206Z,18.30
2023-04-24T17:59:23.558Z,18.70
2023-04-24T18:01:53.186Z,19.10
2023-04-24T18:04:21.711Z,19.80
2023-04-24T18:06:50.390Z,21.40
2023-04-24T18:09:21.119Z,22.10
2023-04-24T18:11:50.265Z,23.50
2023-04-24T18:14:18.354Z,23.80
2023-04-24T18:16:47.151Z,24.70
2023-04-24T18:19:15.508Z,22.30
2023-04-24T18:21:43.802Z,22.50
2023-04-24T18:24:12.772Z,19.80
2023-04-24T18:26:41.030Z,20.20
2023-04-24T18:29:09.079Z,20.30
2023-04-24T18:31:37.351Z,21.10
2023-04-24T18:34:06.908Z,21.10
2023-04-24T18:36:36.878Z,18.70
2023-04-24T18:39:05.067Z,17.20
2023-04-24T18:41:35.393Z,19.10
2023-04-24T18:44:03.784Z,21.20
2023-04-24T18:46:38.345Z,21.80
2023-04-24T18:49:07.798Z,20.20
2023-04-24T18:51:46.594Z,21.00
2023-04-24T18:54:19.416Z,21.70
2023-04-24T18:56:47.539Z,21.50
2023-04-24T18:59:15.679Z,21.70
2023-04-24T19:01:43.867Z,31.90
2023-04-24T19:04:12.888Z,35.30
2023-04-24T19:06:41.235Z,33.10
2023-04-24T19:09:09.397Z,35.10
2023-04-24T19:11:38.030Z,37.80
2023-04-24T19:14:07.628Z,37.20
2023-04-24T19:16:37.717Z,36.70
2023-04-24T19:19:06.016Z,36.70
2023-04-24T19:21:35.328Z,26.60
2023-04-24T19:24:05.148Z,28.60
2023-04-24T19:26:33.865Z,25.60
2023-04-24T19:29:03.890Z,25.90
2023-04-24T19:31:32.069Z,28.10
2023-04-24T19:34:00.756Z,22.40
2023-04-24T19:36:30.311Z,23.70
2023-04-24T19:38:58.490Z,22.30
2023-04-24T19:41:26.544Z,22.50
2023-04-24T19:43:54.635Z,23.40
2023-04-24T19:46:23.072Z,26.20
2023-04-24T19:48:51.446Z,20.70
2023-04-24T19:51:19.806Z,20.50
2023-04-24T19:53:49.505Z,20.80
2023-04-24T19:56:17.720Z,21.20
2023-04-24T19:58:48.990Z,18.90
2023-04-24T20:01:19.768Z,20.60
2023-04-24T20:03:51.047Z,19.60
2023-04-24T20:06:20.671Z,24.30
2023-04-24T20:08:49.626Z,20.10
2023-04-24T20:11:18.014Z,22.50
2023-04-24T20:13:46.358Z,23.90
2023-04-24T20:16:15.293Z,22.00
2023-04-24T20:18:44.819Z,25.10
2023-04-24T20:21:13.675Z,22.30
2023-04-24T20:23:41.650Z,21.20
2023-04-24T20:26:11.361Z,22.20
2023-04-24T20:28:39.947Z,28.60
2023-04-24T20:31:08.411Z,25.30
2023-04-24T20:33:40.859Z,24.30
2023-04-24T20:36:11.614Z,22.90
2023-04-24T20:38:39.871Z,23.80
2023-04-24T20:41:09.237Z,28.10
2023-04-24T20:43:37.532Z,23.30
2023-04-24T20:46:07.425Z,22.50
2023-04-24T20:48:36.357Z,20.20
2023-04-24T20:51:04.497Z,17.30
2023-04-24T20:53:32.901Z,20.40
2023-04-24T20:56:00.980Z,19.10
2023-04-24T20:58:29.285Z,20.80
2023-04-24T21:00:57.557Z,24.50
2023-04-24T21:03:25.963Z,22.90
2023-04-24T21:05:55.220Z,22.70
2023-04-24T21:08:23.143Z,21.20
2023-04-24T21:10:52.517Z,21.70
2023-04-24T21:13:20.840Z,20.90
2023-04-24T21:15:48.928Z,19.80
2023-04-24T21:18:17.055Z,19.90
2023-04-24T21:20:45.688Z,18.80
2023-04-24T21:23:13.756Z,19.50
2023-04-24T21:25:41.755Z,21.90
2023-04-24T21:28:09.975Z,22.00
2023-04-24T21:30:39.125Z,22.60
2023-04-24T21:33:07.259Z,23.20
2023-04-24T21:35:36.154Z,22.60
2023-04-24T21:38:04.175Z,25.00
2023-04-24T21:40:32.367Z,24.60
2023-04-24T21:43:00.536Z,26.30
2023-04-24T21:45:28.598Z,26.50
2023-04-24T21:47:58.543Z,23.30
2023-04-24T21:50:26.700Z,25.50
2023-04-24T21:52:54.592Z,26.00
2023-04-24T21:55:22.692Z,29.60
2023-04-24T21:57:50.661Z,31.50
2023-04-24T22:00:18.819Z,27.90
2023-04-24T22:02:47.052Z,30.00
2023-04-24T22:05:18.772Z,32.00
2023-04-24T22:07:49.800Z,30.80
2023-04-24T22:10:18.776Z,26.00
2023-04-24T22:12:47.282Z,28.70
2023-04-24T22:15:15.590Z,26.60
2023-04-24T22:17:43.764Z,26.20
2023-04-24T22:20:12.282Z,33.20
2023-04-24T22:22:40.570Z,26.10
2023-04-24T22:25:09.029Z,30.90
2023-04-24T22:27:37.191Z,23.00
2023-04-24T22:30:06.102Z,27.90
2023-04-24T22:32:34.574Z,29.20
2023-04-24T22:35:02.930Z,27.00
2023-04-24T22:37:30.971Z,29.70
2023-04-24T22:40:01.386Z,27.30
2023-04-24T22:42:29.748Z,31.20
2023-04-24T22:44:58.030Z,23.60
2023-04-24T22:47:26.521Z,26.40
2023-04-24T22:49:55.520Z,25.00
2023-04-24T22:52:23.392Z,23.80
2023-04-24T22:54:52.280Z,20.90
2023-04-24T22:57:20.463Z,22.20
2023-04-24T22:59:48.593Z,24.30
2023-04-24T23:02:17.067Z,23.60
2023-04-24T23:04:45.350Z,22.60
2023-04-24T23:07:13.330Z,21.70
2023-04-24T23:09:41.913Z,22.70
2023-04-24T23:12:09.798Z,22.40
2023-04-24T23:14:38.463Z,20.30
2023-04-24T23:17:06.421Z,18.40
2023-04-24T23:19:34.408Z,22.00
2023-04-24T23:22:02.547Z,18.60
2023-04-24T23:24:30.648Z,20.30
2023-04-24T23:26:58.630Z,22.00
2023-04-24T23:29:26.605Z,20.60
2023-04-24T23:31:54.608Z,24.30
2023-04-24T23:34:22.704Z,19.60
2023-04-24T23:36:52.703Z,17.90
2023-04-24T23:39:21.401Z,15.50
2023-04-24T23:41:49.801Z,21.90
2023-04-24T23:44:17.779Z,20.60
2023-04-24T23:46:45.832Z,20.60
2023-04-24T23:49:14.916Z,19.10
2023-04-24T23:51:43.413Z,20.60
2023-04-24T23:54:11.484Z,23.00
2023-04-24T23:56:39.568Z,23.60
2023-04-24T23:59:07.672Z,28.50
